Kimberly, WI (54136)

2:34 AM CDT on September 01, 2014 (GMT -0500)
Town of Buchanan | Change Station
CLOSE
Current Station
Personal Weather Station
Location: Appleton, WI
Elevation: 768 ft
Nearby Weather Stations

Elev 768 ft 44.25 °N, 88.34 °W | Updated 4 minutes ago

Mostly Cloudy
Mostly Cloudy
71.8 °F
Feels Like 71.8 °F
N
6.4
Wind Variable Wind from South
Gusts 12.0 mph

Today
High -- | Low -- °F
--% Chance of Precip.
Yesterday
High -- | Low -- °F
Precip. -- in
6:16 AM 7:29 PM
Waxing Crescent, 38% visible
Pressure 29.76 in
Visibility 10.0 miles
Clouds Overcast 12000 ft
Dew Point 71 °F
Humidity 95%
Rainfall 0.00 in
Snow Depth Not available.
UV 0 out of 12
Pollen 7.20 out of 12
PM2.5 Good
Flu Activity Not available.
METAR KATW 010715Z AUTO 16007KT 10SM OVC120 21/21 A2976 RMK AO2

More Conditions Fewer Conditions

Pressure 29.76 in
Visibility 10.0 miles
Clouds Overcast 12000 ft
Dew Point 71 °F
Humidity 95%
Rainfall 0.00 in
Snow Depth Not available.
UV 0 out of 12
Pollen 7.20 out of 12
PM2.5 Good
Flu Activity Not available.
METAR KATW 010715Z AUTO 16007KT 10SM OVC120 21/21 A2976 RMK AO2

More Conditions Fewer Conditions

10-Day Weather Forecast

Almanac

Astronomy

Sep. 01, 2014 Rise Set
Actual Time 6:16 AM CDT 7:29 PM CDT
Civil Twilight 5:46 AM CDT 7:59 PM CDT
Nautical Twilight 5:10 AM CDT 8:35 PM CDT
Astronomical Twilight 4:32 AM CDT 9:12 PM CDT
Moon 1:16 PM CDT 11:15 PM CDT
Length of Visible Light 14h 12m
Length of Day
13h 13m
Tomorrow will be 2m 56s shorter.
Waxing Crescent, 38% of the Moon is Illuminated
Today
Waxing Crescent
Sep 2
First Quarter
Sep 8
Full
Sep 15
Last Quarter
Sep 24
New

Today's Extremes

State Highs State Lows

Community

WunderPhotos

Upload Photos

1,749,154 photos uploaded!

Nearby

Air Quality

  Air Quality AQ Index Pollutant
Yesterday Good
OZONE
Yesterday Good
PM2.5
Current Good
PM2.5
Monday Good
OZONE
Monday Good
PM2.5
Tuesday Good
OZONE
Tuesday Good
PM2.5

Snow Depth

Station Depth Elevation
No new snow has been reported.

Earthquake Activity

City Distance Mag. Time & Date
No recent earthquake activity has been reported nearby.
Minimum magnitude displayed is 2.5.

Coastal Water Temperatures

Place Temperature
Menominee, MI 71.1 °F

Nearby Weather Stations